Argus — PBVR — position and weather

sailwx.info

Track history (hours):
 
Tides and Currents Weather Stations Pressure Air Temp Water Temp Dewpoint Dewpoint Depression Visibility Wind Speed Wind Dir Waves Ship Positions

Oceanographic research ship Argus (Netherlands)

Detailed information on ship capabilities available from University of Delaware's Ocean Information Center.

Last reported at 2018-Apr-19 11:14 UTC. Time now 2018-Apr-23 19:07 UTC.
Position N 30°25' W 009°40'.

Length 33 m; draft 1.7 m.

Type: Port tender. MMSI: 245323000.

Date/timePositionNaut miles runAvg speedWind from/ knotsBaromVisibWave heightAir tempDewpointWater temp
2018-Apr-19 11:14N 30°25' W 009°40'5 0.3
2018-Apr-18 18:19N 30°25' W 009°46'2 6.1
2018-Apr-18 17:58N 30°26' W 009°47'4 7.4
2018-Apr-18 17:27N 30°29' W 009°50'71 7.9
2018-Apr-18 08:28N 31°38' W 010°12'4 8.0
2018-Apr-18 08:00N 31°41' W 010°12'  
2018-Apr-16 00:15N 38°44' W 009°60'5 7.5
2018-Apr-15 23:36N 38°48' W 009°59'1 7.5
2018-Apr-15 23:28N 38°49' W 009°59'5 7.3
2018-Apr-15 22:49N 38°54' W 009°58'3 7.5
2018-Apr-15 22:28N 38°57' W 009°58'4 7.6
2018-Apr-15 21:59N 39°00' W 009°57'4 7.5
2018-Apr-15 21:30N 39°04' W 009°57'4 7.7
2018-Apr-15 20:57N 39°08' W 009°56'  
2018-Apr-09 22:48N 48°02' W 005°15'7 6.6
2018-Apr-09 21:48N 48°08' W 005°09'4 6.3
2018-Apr-09 21:14N 48°10' W 005°06'3 6.4
2018-Apr-09 20:48N 48°12' W 005°03'4 7.1
2018-Apr-09 20:16N 48°14' W 004°58'2 7.5
2018-Apr-09 20:00N 48°15' W 004°55'4 7.8
2018-Apr-09 19:30N 48°17' W 004°50'4 7.7
2018-Apr-09 19:00N 48°18' W 004°44'4 7.7
2018-Apr-09 18:30N 48°19' W 004°39'4 7.7
2018-Apr-09 18:00N 48°21' W 004°34'3 6.4
2018-Apr-09 17:30N 48°22' W 004°29'0 0.4
2018-Apr-09 17:00N 48°23' W 004°29'0 0.0
2018-Apr-09 16:30N 48°23' W 004°29'0 0.0
2018-Apr-09 16:00N 48°23' W 004°29'0 0.0
2018-Apr-09 15:30N 48°23' W 004°29'0 0.0
2018-Apr-09 15:00N 48°23' W 004°29'0 0.0
2018-Apr-09 14:30N 48°23' W 004°29'0 0.0
2018-Apr-09 14:00N 48°23' W 004°29'0 0.0
2018-Apr-09 13:30N 48°23' W 004°29'0 0.0
2018-Apr-09 13:00N 48°23' W 004°29'0 0.0
2018-Apr-09 12:30N 48°23' W 004°29'0 0.0
2018-Apr-09 12:00N 48°23' W 004°29'0 0.0
2018-Apr-09 11:30N 48°23' W 004°29'  
Track history (hours):
 
Tides and Currents Weather Stations Pressure Air Temp Water Temp Dewpoint Dewpoint Depression Visibility Wind Speed Wind Dir Waves Ship Positions

Oceanographic research ship Argus (Netherlands)

Detailed information on ship capabilities available from University of Delaware's Ocean Information Center.

Last reported at 2018-Apr-19 11:14 UTC. Time now 2018-Apr-23 19:07 UTC.
Position N 30°25' W 009°40'.

Length 33 m; draft 1.7 m.

Type: Port tender. MMSI: 245323000.

Date/timePositionNaut miles runAvg speedWind from/ knotsBaromVisibWave heightAir tempDewpointWater temp
2018-Apr-19 11:14N 30°25' W 009°40'5 0.3
2018-Apr-18 18:19N 30°25' W 009°46'2 6.1
2018-Apr-18 17:58N 30°26' W 009°47'4 7.4
2018-Apr-18 17:27N 30°29' W 009°50'71 7.9
2018-Apr-18 08:28N 31°38' W 010°12'4 8.0
2018-Apr-18 08:00N 31°41' W 010°12'  
2018-Apr-16 00:15N 38°44' W 009°60'5 7.5
2018-Apr-15 23:36N 38°48' W 009°59'1 7.5
2018-Apr-15 23:28N 38°49' W 009°59'5 7.3
2018-Apr-15 22:49N 38°54' W 009°58'3 7.5
2018-Apr-15 22:28N 38°57' W 009°58'4 7.6
2018-Apr-15 21:59N 39°00' W 009°57'4 7.5
2018-Apr-15 21:30N 39°04' W 009°57'4 7.7
2018-Apr-15 20:57N 39°08' W 009°56'  
2018-Apr-09 22:48N 48°02' W 005°15'7 6.6
2018-Apr-09 21:48N 48°08' W 005°09'4 6.3
2018-Apr-09 21:14N 48°10' W 005°06'3 6.4
2018-Apr-09 20:48N 48°12' W 005°03'4 7.1
2018-Apr-09 20:16N 48°14' W 004°58'2 7.5
2018-Apr-09 20:00N 48°15' W 004°55'4 7.8
2018-Apr-09 19:30N 48°17' W 004°50'4 7.7
2018-Apr-09 19:00N 48°18' W 004°44'4 7.7
2018-Apr-09 18:30N 48°19' W 004°39'4 7.7
2018-Apr-09 18:00N 48°21' W 004°34'3 6.4
2018-Apr-09 17:30N 48°22' W 004°29'0 0.4
2018-Apr-09 17:00N 48°23' W 004°29'0 0.0
2018-Apr-09 16:30N 48°23' W 004°29'0 0.0
2018-Apr-09 16:00N 48°23' W 004°29'0 0.0
2018-Apr-09 15:30N 48°23' W 004°29'0 0.0
2018-Apr-09 15:00N 48°23' W 004°29'0 0.0
2018-Apr-09 14:30N 48°23' W 004°29'0 0.0
2018-Apr-09 14:00N 48°23' W 004°29'0 0.0
2018-Apr-09 13:30N 48°23' W 004°29'0 0.0
2018-Apr-09 13:00N 48°23' W 004°29'0 0.0
2018-Apr-09 12:30N 48°23' W 004°29'0 0.0
2018-Apr-09 12:00N 48°23' W 004°29'0 0.0
2018-Apr-09 11:30N 48°23' W 004°29'  

Dump ship's entire track history